Time;durP1;ratioP1;P1;durP2;ratioP2;P2;SDS_P1;SDS_P2;PMS_P1;PMS_P2;Temp;Humidity;BMP_temperature;BMP_pressure;BME280_temperature;BME280_humidity;BME280_pressure;Samples;Min_cycle;Max_cycle;Signal;HPM_P1;HPM_P2
2023/09/19 00:00:33;;;;;;;3.17;2.97;;;;;;;;;;5090836;28;20200;-72
2023/09/19 00:03:00;;;;;;;3.80;3.33;;;;;;;;;;5092339;28;20211;-72
2023/09/19 00:05:29;;;;;;;3.57;3.00;;;;;;;;;;5102418;28;20199;-72
2023/09/19 00:07:58;;;;;;;3.83;3.17;;;;;;;;;;5104317;28;20200;-72
2023/09/19 00:10:26;;;;;;;6.07;3.57;;;;;;;;;;5099677;28;21122;-72
2023/09/19 00:12:55;;;;;;;3.80;3.50;;;;;;;;;;5093844;28;20232;-72
2023/09/19 00:15:21;;;;;;;4.10;3.60;;;;;;;;;;5090712;28;20272;-72
2023/09/19 00:17:48;;;;;;;4.50;3.60;;;;;;;;;;5090350;28;20202;-72
2023/09/19 00:20:17;;;;;;;7.40;3.63;;;;;;;;;;5108742;28;20202;-72
2023/09/19 00:22:45;;;;;;;4.20;3.60;;;;;;;;;;5110493;28;20231;-72
2023/09/19 00:25:15;;;;;;;3.77;3.47;;;;;;;;;;5110334;28;20681;-72
2023/09/19 00:27:43;;;;;;;3.87;3.57;;;;;;;;;;5097020;28;20213;-72
2023/09/19 00:30:15;;;;;;;4.83;3.50;;;;;;;;;;5099200;28;20221;-72
2023/09/19 00:32:42;;;;;;;4.27;3.00;;;;;;;;;;5095638;28;20586;-72
2023/09/19 00:35:10;;;;;;;3.37;3.10;;;;;;;;;;5097737;28;20203;-72
2023/09/19 00:37:37;;;;;;;4.77;3.50;;;;;;;;;;5090473;28;20213;-73
2023/09/19 00:40:10;;;;;;;4.10;3.70;;;;;;;;;;5090445;28;20211;-72
2023/09/19 00:42:37;;;;;;;4.00;3.47;;;;;;;;;;5098061;28;20212;-73
2023/09/19 00:45:06;;;;;;;3.67;3.30;;;;;;;;;;5096058;28;20277;-72
2023/09/19 00:47:33;;;;;;;4.83;3.87;;;;;;;;;;5098288;28;20211;-72
2023/09/19 00:50:00;;;;;;;4.37;3.87;;;;;;;;;;5108754;28;20260;-72
2023/09/19 00:52:28;;;;;;;4.47;3.60;;;;;;;;;;5090511;28;20201;-72
2023/09/19 00:54:55;;;;;;;4.03;3.73;;;;;;;;;;5092858;28;20688;-72
2023/09/19 00:57:23;;;;;;;3.80;3.37;;;;;;;;;;5093803;28;20224;-72
2023/09/19 00:59:51;;;;;;;3.80;3.50;;;;;;;;;;5093713;28;20674;-72
2023/09/19 01:02:18;;;;;;;3.87;3.30;;;;;;;;;;5093708;28;20666;-72
2023/09/19 01:04:45;;;;;;;3.80;3.50;;;;;;;;;;5093752;28;20201;-72
2023/09/19 01:07:14;;;;;;;3.60;3.30;;;;;;;;;;5103821;28;20209;-72
2023/09/19 01:09:42;;;;;;;4.17;3.77;;;;;;;;;;5109668;28;20197;-72
2023/09/19 01:12:09;;;;;;;4.10;3.50;;;;;;;;;;5105121;28;20237;-72
2023/09/19 01:14:44;;;;;;;4.10;3.70;;;;;;;;;;5100549;28;20253;-71
2023/09/19 01:17:15;;;;;;;4.30;3.50;;;;;;;;;;5100864;28;20223;-72
2023/09/19 01:20:07;;;;;;;3.80;3.50;;;;;;;;;;5093281;28;20202;-71
2023/09/19 01:22:40;;;;;;;4.37;3.87;;;;;;;;;;5096382;28;20206;-71
2023/09/19 01:25:35;;;;;;;6.57;4.83;;;;;;;;;;5103134;28;20201;-72
2023/09/19 01:28:20;;;;;;;5.87;3.80;;;;;;;;;;5100678;28;20211;-72
2023/09/19 01:30:50;;;;;;;4.00;3.70;;;;;;;;;;5113437;28;20621;-72
2023/09/19 01:33:19;;;;;;;4.07;3.73;;;;;;;;;;5102863;28;20251;-72
2023/09/19 01:35:46;;;;;;;4.40;3.57;;;;;;;;;;5106937;28;20234;-72
2023/09/19 01:38:14;;;;;;;3.97;3.57;;;;;;;;;;5092998;28;20204;-72
2023/09/19 01:40:43;;;;;;;3.90;3.60;;;;;;;;;;5093242;28;20234;-72
2023/09/19 01:43:14;;;;;;;3.63;3.33;;;;;;;;;;5092943;28;20682;-72
2023/09/19 01:45:48;;;;;;;5.23;4.23;;;;;;;;;;5105979;28;20203;-72
2023/09/19 01:48:36;;;;;;;4.27;3.80;;;;;;;;;;5093512;28;20264;-72
2023/09/19 01:51:07;;;;;;;3.93;3.60;;;;;;;;;;5102649;28;20196;-72
2023/09/19 01:53:37;;;;;;;3.80;3.50;;;;;;;;;;5097016;28;20201;-72
2023/09/19 01:56:06;;;;;;;9.63;3.90;;;;;;;;;;5101058;28;20223;-72
2023/09/19 01:58:35;;;;;;;5.77;4.00;;;;;;;;;;5111550;28;20282;-72
2023/09/19 02:01:05;;;;;;;4.83;4.33;;;;;;;;;;5112683;28;20203;-72
2023/09/19 02:03:32;;;;;;;4.03;3.67;;;;;;;;;;5112996;28;20582;-72
2023/09/19 02:05:59;;;;;;;4.73;3.87;;;;;;;;;;5112305;28;20207;-72
2023/09/19 02:08:27;;;;;;;4.70;3.80;;;;;;;;;;5112786;28;20204;-72
2023/09/19 02:10:54;;;;;;;7.60;4.37;;;;;;;;;;5098539;28;20220;-72
2023/09/19 02:13:22;;;;;;;4.27;3.97;;;;;;;;;;5099362;28;20192;-71
2023/09/19 02:15:49;;;;;;;4.47;3.33;;;;;;;;;;5111761;28;20200;-72
2023/09/19 02:18:18;;;;;;;7.43;3.83;;;;;;;;;;5092436;28;20204;-72
2023/09/19 02:20:45;;;;;;;5.33;4.83;;;;;;;;;;5093526;28;20565;-72
2023/09/19 02:23:13;;;;;;;4.23;3.83;;;;;;;;;;5104870;28;20599;-72
2023/09/19 02:25:40;;;;;;;3.80;3.40;;;;;;;;;;5091661;28;20290;-72
2023/09/19 02:28:09;;;;;;;5.07;4.20;;;;;;;;;;5092069;28;20666;-72
2023/09/19 02:30:36;;;;;;;3.73;3.37;;;;;;;;;;5106851;28;20226;-72
2023/09/19 02:33:02;;;;;;;4.80;4.20;;;;;;;;;;5111894;28;20233;-72
2023/09/19 02:35:35;;;;;;;3.87;3.57;;;;;;;;;;5098618;28;20188;-72
2023/09/19 02:38:02;;;;;;;4.63;4.23;;;;;;;;;;5112083;28;20233;-72
2023/09/19 02:40:29;;;;;;;7.97;4.57;;;;;;;;;;5109509;28;20803;-72
2023/09/19 02:42:59;;;;;;;4.03;3.63;;;;;;;;;;5091630;28;20761;-72
2023/09/19 02:45:26;;;;;;;4.90;4.43;;;;;;;;;;5105523;28;20255;-72
2023/09/19 02:47:52;;;;;;;4.57;3.83;;;;;;;;;;5102186;28;20196;-72
2023/09/19 02:50:19;;;;;;;6.33;4.37;;;;;;;;;;5094823;28;20585;-72
2023/09/19 02:52:49;;;;;;;5.37;4.30;;;;;;;;;;5102956;28;20214;-72
2023/09/19 02:55:17;;;;;;;4.50;3.97;;;;;;;;;;5093320;28;20737;-72
2023/09/19 02:57:47;;;;;;;5.37;4.20;;;;;;;;;;5091760;28;20251;-73
2023/09/19 03:00:14;;;;;;;4.80;4.13;;;;;;;;;;5097259;28;20195;-72
2023/09/19 03:02:41;;;;;;;5.83;4.20;;;;;;;;;;5111777;28;20619;-72
2023/09/19 03:05:11;;;;;;;3.87;3.57;;;;;;;;;;5111762;28;20312;-72
2023/09/19 03:07:38;;;;;;;3.90;3.60;;;;;;;;;;5111572;28;20248;-72
2023/09/19 03:10:07;;;;;;;4.27;3.90;;;;;;;;;;5097530;28;20756;-72
2023/09/19 03:12:34;;;;;;;4.13;3.83;;;;;;;;;;5097939;28;20239;-73
2023/09/19 03:15:01;;;;;;;6.23;4.10;;;;;;;;;;5091325;28;20200;-72
2023/09/19 03:17:28;;;;;;;4.37;4.03;;;;;;;;;;5091626;28;20249;-72
2023/09/19 03:19:55;;;;;;;4.73;3.80;;;;;;;;;;5104070;28;20203;-72
2023/09/19 03:22:22;;;;;;;4.80;4.40;;;;;;;;;;5090916;28;20211;-72
2023/09/19 03:24:48;;;;;;;5.60;4.20;;;;;;;;;;5104349;28;20211;-72
2023/09/19 03:27:17;;;;;;;4.43;4.03;;;;;;;;;;5104508;28;20201;-72
2023/09/19 03:29:44;;;;;;;3.70;3.40;;;;;;;;;;5091618;28;20282;-72
2023/09/19 03:32:11;;;;;;;4.33;3.67;;;;;;;;;;5104669;28;20236;-72
2023/09/19 03:34:42;;;;;;;4.27;3.87;;;;;;;;;;5099426;28;20203;-72
2023/09/19 03:37:09;;;;;;;3.93;3.63;;;;;;;;;;5095127;28;20226;-72
2023/09/19 03:39:36;;;;;;;4.93;4.10;;;;;;;;;;5099635;28;20210;-72
2023/09/19 03:42:03;;;;;;;3.97;3.67;;;;;;;;;;5097073;28;20206;-72
2023/09/19 03:44:31;;;;;;;5.30;3.87;;;;;;;;;;5101686;28;20206;-72
2023/09/19 03:46:58;;;;;;;4.43;4.00;;;;;;;;;;5099809;28;20207;-75
2023/09/19 03:49:25;;;;;;;4.63;4.10;;;;;;;;;;5110974;28;20200;-75
2023/09/19 03:51:52;;;;;;;4.57;4.17;;;;;;;;;;5095229;28;20199;-75
2023/09/19 03:54:19;;;;;;;4.37;3.87;;;;;;;;;;5104122;28;20230;-75
2023/09/19 03:56:46;;;;;;;4.90;4.13;;;;;;;;;;5105096;28;20223;-75
2023/09/19 03:59:13;;;;;;;6.50;5.13;;;;;;;;;;5103345;28;20224;-75
2023/09/19 04:01:42;;;;;;;5.00;4.53;;;;;;;;;;5104062;28;20231;-75
2023/09/19 04:04:09;;;;;;;5.70;5.17;;;;;;;;;;5099445;28;20260;-75
2023/09/19 04:06:36;;;;;;;5.10;4.60;;;;;;;;;;5095171;28;20578;-80
2023/09/19 04:09:04;;;;;;;4.47;3.87;;;;;;;;;;5099773;28;20196;-80
2023/09/19 04:11:31;;;;;;;4.30;3.90;;;;;;;;;;5108409;28;20617;-79
2023/09/19 04:13:57;;;;;;;6.57;4.33;;;;;;;;;;5090745;28;20298;-80
2023/09/19 04:16:24;;;;;;;4.23;3.87;;;;;;;;;;5103549;28;20203;-80
2023/09/19 04:18:52;;;;;;;5.83;4.57;;;;;;;;;;5099582;28;20212;-79
2023/09/19 04:21:19;;;;;;;4.77;3.90;;;;;;;;;;5097198;28;20196;-79
2023/09/19 04:23:46;;;;;;;6.17;4.00;;;;;;;;;;5098384;28;20246;-79
2023/09/19 04:26:15;;;;;;;4.30;3.90;;;;;;;;;;5088909;28;20871;-79
2023/09/19 04:28:43;;;;;;;4.73;4.23;;;;;;;;;;5091306;28;20204;-79
2023/09/19 04:31:11;;;;;;;4.50;4.10;;;;;;;;;;5101123;28;20206;-79
2023/09/19 04:33:38;;;;;;;5.70;4.60;;;;;;;;;;5100492;28;20211;-79
2023/09/19 04:36:07;;;;;;;4.30;3.90;;;;;;;;;;5093641;28;20265;-79
2023/09/19 04:38:34;;;;;;;4.73;4.13;;;;;;;;;;5106960;28;20223;-79
2023/09/19 04:41:01;;;;;;;4.33;4.00;;;;;;;;;;5092613;28;20196;-79
2023/09/19 04:43:29;;;;;;;8.03;4.93;;;;;;;;;;5094354;28;20200;-79
2023/09/19 04:45:55;;;;;;;5.27;4.77;;;;;;;;;;5113871;28;20212;-79
2023/09/19 04:48:24;;;;;;;5.17;4.67;;;;;;;;;;5099881;28;20197;-79
2023/09/19 04:50:51;;;;;;;6.17;4.47;;;;;;;;;;5110862;28;20677;-79
2023/09/19 04:53:21;;;;;;;6.80;4.77;;;;;;;;;;5100051;28;20265;-79
2023/09/19 04:55:52;;;;;;;4.47;4.07;;;;;;;;;;5113815;28;20276;-77
2023/09/19 04:58:19;;;;;;;5.83;4.00;;;;;;;;;;5111356;28;20261;-77
2023/09/19 05:00:46;;;;;;;5.27;4.77;;;;;;;;;;5094108;28;20207;-77
2023/09/19 05:03:12;;;;;;;5.07;4.37;;;;;;;;;;5095510;28;20208;-77
2023/09/19 05:05:42;;;;;;;5.70;4.27;;;;;;;;;;5104535;28;20570;-77
2023/09/19 05:08:09;;;;;;;4.37;3.97;;;;;;;;;;5106816;28;20219;-77
2023/09/19 05:10:38;;;;;;;4.67;4.20;;;;;;;;;;5092819;28;20222;-76
2023/09/19 05:13:07;;;;;;;4.90;4.33;;;;;;;;;;5107312;28;20223;-77
2023/09/19 05:15:35;;;;;;;4.73;4.33;;;;;;;;;;5093590;28;20228;-78
2023/09/19 05:18:03;;;;;;;8.60;4.83;;;;;;;;;;5097516;28;20728;-77
2023/09/19 05:20:32;;;;;;;4.97;4.47;;;;;;;;;;5102024;28;20231;-77
2023/09/19 05:23:01;;;;;;;7.87;4.20;;;;;;;;;;5106802;28;20196;-77
2023/09/19 05:25:29;;;;;;;5.70;5.10;;;;;;;;;;5092964;28;20212;-77
2023/09/19 05:27:58;;;;;;;4.53;4.13;;;;;;;;;;5092519;28;20747;-78
2023/09/19 05:30:27;;;;;;;5.93;5.03;;;;;;;;;;5093207;28;20235;-77
2023/09/19 05:32:54;;;;;;;5.27;4.40;;;;;;;;;;5093223;28;20199;-77
2023/09/19 05:35:21;;;;;;;6.20;4.53;;;;;;;;;;5092613;28;20588;-77
2023/09/19 05:37:48;;;;;;;5.10;4.60;;;;;;;;;;5100660;28;20728;-77
2023/09/19 05:40:15;;;;;;;5.00;4.60;;;;;;;;;;5098407;28;20200;-78
2023/09/19 05:42:43;;;;;;;9.70;4.63;;;;;;;;;;5105204;28;20232;-77
2023/09/19 05:45:13;;;;;;;8.33;4.03;;;;;;;;;;5094309;28;20576;-77
2023/09/19 05:47:41;;;;;;;5.50;5.00;;;;;;;;;;5104078;28;20216;-77
2023/09/19 05:50:09;;;;;;;5.67;4.27;;;;;;;;;;5104800;28;20277;-78
2023/09/19 05:52:37;;;;;;;5.67;4.70;;;;;;;;;;5092808;28;20676;-77
2023/09/19 05:55:05;;;;;;;7.17;4.17;;;;;;;;;;5106629;28;20258;-78
2023/09/19 05:57:32;;;;;;;5.27;4.77;;;;;;;;;;5092445;28;20618;-78
2023/09/19 05:59:59;;;;;;;5.80;5.20;;;;;;;;;;5092382;28;20730;-77
2023/09/19 06:02:28;;;;;;;10.60;4.40;;;;;;;;;;5102661;28;20281;-77
2023/09/19 06:04:55;;;;;;;6.23;4.07;;;;;;;;;;5108980;28;20202;-77
2023/09/19 06:07:23;;;;;;;6.63;4.23;;;;;;;;;;5102708;28;20207;-77
2023/09/19 06:09:50;;;;;;;5.03;4.13;;;;;;;;;;5105895;28;20200;-78
2023/09/19 06:12:17;;;;;;;5.73;3.93;;;;;;;;;;5093769;28;20278;-78
2023/09/19 06:14:44;;;;;;;5.87;4.80;;;;;;;;;;5092212;28;20777;-78
2023/09/19 06:17:10;;;;;;;4.10;3.80;;;;;;;;;;5093997;28;20219;-77
2023/09/19 06:19:38;;;;;;;4.80;4.37;;;;;;;;;;5106569;28;20699;-77
2023/09/19 06:22:05;;;;;;;4.63;3.37;;;;;;;;;;5105135;28;20219;-77
2023/09/19 06:24:32;;;;;;;4.03;3.70;;;;;;;;;;5093404;28;20203;-76
2023/09/19 06:27:01;;;;;;;4.47;4.10;;;;;;;;;;5092640;28;20199;-76
2023/09/19 06:29:27;;;;;;;4.30;3.80;;;;;;;;;;5092008;28;20200;-77
2023/09/19 06:31:54;;;;;;;5.53;3.53;;;;;;;;;;5105372;28;20198;-78
2023/09/19 06:34:22;;;;;;;5.63;4.03;;;;;;;;;;5092320;28;20191;-80
2023/09/19 06:36:52;;;;;;;4.43;3.67;;;;;;;;;;5104851;28;20256;-81
2023/09/19 06:39:22;;;;;;;4.73;3.70;;;;;;;;;;5091922;28;20214;-82
2023/09/19 06:41:50;;;;;;;4.03;3.73;;;;;;;;;;5091576;28;20210;-79
2023/09/19 06:44:16;;;;;;;6.00;3.87;;;;;;;;;;5091927;28;20202;-81
2023/09/19 06:46:46;;;;;;;4.27;3.87;;;;;;;;;;5090894;28;20248;-80
2023/09/19 06:49:15;;;;;;;3.73;3.43;;;;;;;;;;5101138;28;20206;-81
2023/09/19 06:51:43;;;;;;;3.90;3.60;;;;;;;;;;5094271;28;20220;-81
2023/09/19 06:54:11;;;;;;;4.33;3.93;;;;;;;;;;5090912;28;20204;-80
2023/09/19 06:56:37;;;;;;;3.30;3.00;;;;;;;;;;5100185;28;20609;-82
2023/09/19 06:59:06;;;;;;;6.30;3.50;;;;;;;;;;5111359;28;20716;-80
2023/09/19 07:01:37;;;;;;;4.67;3.83;;;;;;;;;;5111512;28;20200;-79
2023/09/19 07:04:05;;;;;;;3.67;3.23;;;;;;;;;;5111327;28;20200;-77
2023/09/19 07:06:31;;;;;;;3.63;3.33;;;;;;;;;;5111267;28;20196;-77
2023/09/19 07:08:58;;;;;;;7.67;3.77;;;;;;;;;;5110909;28;20297;-78
2023/09/19 07:11:26;;;;;;;4.07;3.67;;;;;;;;;;5101517;28;20228;-78
2023/09/19 07:13:53;;;;;;;5.10;3.80;;;;;;;;;;5110805;28;20225;-78
2023/09/19 07:16:29;;;;;;;4.07;3.67;;;;;;;;;;5111564;28;20196;-78
2023/09/19 07:18:56;;;;;;;3.97;3.57;;;;;;;;;;5110939;28;20358;-78
2023/09/19 07:21:23;;;;;;;4.27;3.53;;;;;;;;;;5110884;28;20638;-78
2023/09/19 07:23:50;;;;;;;5.57;3.40;;;;;;;;;;5099803;28;20200;-78
2023/09/19 07:26:16;;;;;;;4.27;3.43;;;;;;;;;;5110838;28;20195;-78
2023/09/19 07:28:46;;;;;;;5.03;3.60;;;;;;;;;;5090832;28;20618;-78
2023/09/19 07:31:14;;;;;;;5.23;3.37;;;;;;;;;;5104143;28;20203;-78
2023/09/19 07:33:41;;;;;;;3.73;3.40;;;;;;;;;;5091262;28;20228;-78
2023/09/19 07:36:13;;;;;;;3.33;3.00;;;;;;;;;;5104359;28;20290;-78
2023/09/19 07:38:40;;;;;;;3.53;3.03;;;;;;;;;;5099067;28;20310;-79
2023/09/19 07:41:07;;;;;;;4.90;3.37;;;;;;;;;;5110783;28;20203;-78
2023/09/19 07:43:33;;;;;;;5.23;3.50;;;;;;;;;;5103618;28;20204;-78
2023/09/19 07:46:08;;;;;;;5.33;3.47;;;;;;;;;;5090387;28;20200;-78
2023/09/19 07:48:35;;;;;;;4.73;3.07;;;;;;;;;;5091181;28;20635;-78
2023/09/19 07:51:04;;;;;;;4.27;3.47;;;;;;;;;;5104045;28;20268;-78
2023/09/19 07:53:34;;;;;;;7.13;3.33;;;;;;;;;;5090560;28;20200;-78
2023/09/19 07:56:06;;;;;;;9.33;3.50;;;;;;;;;;5097020;28;20214;-78
2023/09/19 07:58:33;;;;;;;8.60;4.47;;;;;;;;;;5103325;28;20238;-78
2023/09/19 08:01:06;;;;;;;5.13;3.30;;;;;;;;;;5110592;28;20214;-78
2023/09/19 08:03:34;;;;;;;5.67;3.27;;;;;;;;;;5105590;28;20287;-78
2023/09/19 08:06:00;;;;;;;6.07;3.37;;;;;;;;;;5094438;28;20206;-78
2023/09/19 08:08:27;;;;;;;5.07;3.20;;;;;;;;;;5109593;28;20210;-78
2023/09/19 08:10:56;;;;;;;5.40;3.70;;;;;;;;;;5110012;28;20694;-77
2023/09/19 08:13:24;;;;;;;4.00;3.70;;;;;;;;;;5106698;28;20202;-78
2023/09/19 08:15:52;;;;;;;3.93;3.53;;;;;;;;;;5097269;28;20204;-78
2023/09/19 08:18:22;;;;;;;4.83;3.57;;;;;;;;;;5093077;28;20236;-78
2023/09/19 08:20:52;;;;;;;4.23;3.53;;;;;;;;;;5097253;28;20256;-78
2023/09/19 08:23:19;;;;;;;5.00;3.80;;;;;;;;;;5114662;28;20203;-77
2023/09/19 08:25:46;;;;;;;3.73;3.43;;;;;;;;;;5094873;28;20670;-78
2023/09/19 08:28:17;;;;;;;7.27;3.67;;;;;;;;;;5106821;28;20213;-78
2023/09/19 08:30:44;;;;;;;3.30;3.00;;;;;;;;;;5101709;28;20257;-78
2023/09/19 08:33:11;;;;;;;4.30;3.40;;;;;;;;;;5100279;28;20204;-77
2023/09/19 08:35:41;;;;;;;4.87;3.90;;;;;;;;;;5112221;28;20635;-78
2023/09/19 08:38:08;;;;;;;5.47;4.03;;;;;;;;;;5108959;28;20219;-78
2023/09/19 08:40:40;;;;;;;5.73;3.10;;;;;;;;;;5111604;28;20252;-78
2023/09/19 08:43:07;;;;;;;4.10;2.50;;;;;;;;;;5097885;28;20743;-77
2023/09/19 08:45:37;;;;;;;5.07;2.90;;;;;;;;;;5112231;28;20291;-77
2023/09/19 08:48:14;;;;;;;3.17;2.50;;;;;;;;;;5112480;28;20227;-77
2023/09/19 08:50:51;;;;;;;2.37;2.17;;;;;;;;;;5102069;28;20287;-77
2023/09/19 08:53:27;;;;;;;3.10;2.83;;;;;;;;;;5093656;28;20196;-77
2023/09/19 08:55:56;;;;;;;3.37;3.07;;;;;;;;;;5106983;28;20199;-77
2023/09/19 08:58:29;;;;;;;5.23;2.80;;;;;;;;;;5093410;28;20988;-78
2023/09/19 09:00:56;;;;;;;2.90;2.70;;;;;;;;;;5093356;28;20192;-78
2023/09/19 09:03:24;;;;;;;3.53;2.63;;;;;;;;;;5096513;28;20224;-78
2023/09/19 09:05:53;;;;;;;3.90;3.07;;;;;;;;;;5112527;28;20195;-77
2023/09/19 09:08:21;;;;;;;3.33;3.03;;;;;;;;;;5099830;28;20662;-77
2023/09/19 09:10:48;;;;;;;3.20;2.90;;;;;;;;;;5113561;28;20227;-78
2023/09/19 09:13:15;;;;;;;3.83;3.20;;;;;;;;;;5113519;28;20256;-78
2023/09/19 09:15:44;;;;;;;3.33;3.07;;;;;;;;;;5113471;28;20249;-78
2023/09/19 09:18:11;;;;;;;3.53;2.63;;;;;;;;;;5102850;28;20227;-78
2023/09/19 09:20:38;;;;;;;7.20;3.17;;;;;;;;;;5096956;28;20204;-78
2023/09/19 09:23:06;;;;;;;3.63;2.73;;;;;;;;;;5099586;28;20200;-79
2023/09/19 09:25:54;;;;;;;4.33;3.23;;;;;;;;;;5113426;28;20208;-79
2023/09/19 09:28:22;;;;;;;4.40;3.50;;;;;;;;;;5093253;28;20253;-79
2023/09/19 09:30:48;;;;;;;2.90;2.70;;;;;;;;;;5109563;28;20203;-78
2023/09/19 09:33:16;;;;;;;5.53;3.63;;;;;;;;;;5113645;28;20195;-79
2023/09/19 09:35:56;;;;;;;4.00;2.83;;;;;;;;;;5105328;28;20214;-79
2023/09/19 09:38:31;;;;;;;2.70;2.50;;;;;;;;;;5102058;28;20223;-79
2023/09/19 09:41:01;;;;;;;3.37;3.07;;;;;;;;;;5107343;28;20200;-79
2023/09/19 09:43:30;;;;;;;3.33;2.93;;;;;;;;;;5108455;28;20200;-79
2023/09/19 09:46:55;;;;;;;3.37;3.07;;;;;;;;;;5104831;28;20203;-79
2023/09/19 09:49:19;;;;;;;3.10;2.80;;;;;;;;;;5101147;28;20249;-78
2023/09/19 09:51:57;;;;;;;3.90;3.27;;;;;;;;;;5092349;28;20330;-79
2023/09/19 09:54:27;;;;;;;4.00;2.67;;;;;;;;;;5092303;28;20196;-78
2023/09/19 09:56:59;;;;;;;8.07;3.23;;;;;;;;;;5090667;28;20283;-79
2023/09/19 09:59:53;;;;;;;4.57;3.47;;;;;;;;;;5092988;28;20311;-79
2023/09/19 10:02:24;;;;;;;3.37;3.07;;;;;;;;;;5092361;28;20303;-79
2023/09/19 10:05:09;;;;;;;3.80;3.17;;;;;;;;;;5095120;28;20200;-78
2023/09/19 10:07:40;;;;;;;3.45;2.92;;;;;;;;;;5099987;28;20201;-77
2023/09/19 10:10:16;;;;;;;5.15;3.20;;;;;;;;;;5098914;28;20670;-77
2023/09/19 10:12:47;;;;;;;2.97;2.70;;;;;;;;;;5111945;28;20258;-77
2023/09/19 10:15:17;;;;;;;4.50;3.40;;;;;;;;;;5095118;28;20212;-77
2023/09/19 10:17:45;;;;;;;4.13;3.35;;;;;;;;;;5092486;28;20204;-77
2023/09/19 10:20:32;;;;;;;3.47;3.17;;;;;;;;;;5100207;28;20247;-77
2023/09/19 10:23:01;;;;;;;3.20;3.00;;;;;;;;;;5105656;28;20200;-77
2023/09/19 10:25:30;;;;;;;3.10;2.77;;;;;;;;;;5091763;28;20211;-78
2023/09/19 10:28:00;;;;;;;3.63;3.33;;;;;;;;;;5097587;28;20200;-76
2023/09/19 10:30:30;;;;;;;3.10;2.90;;;;;;;;;;5097956;28;20229;-76
2023/09/19 10:33:01;;;;;;;4.00;3.50;;;;;;;;;;5091894;28;20611;-77
2023/09/19 10:35:28;;;;;;;7.33;2.97;;;;;;;;;;5107164;28;20250;-76
2023/09/19 10:37:56;;;;;;;7.80;3.50;;;;;;;;;;5111750;28;20200;-77
2023/09/19 10:40:30;;;;;;;3.92;2.92;;;;;;;;;;5096169;28;20227;-77
2023/09/19 10:43:03;;;;;;;4.37;3.07;;;;;;;;;;5091730;28;20203;-77
2023/09/19 10:45:31;;;;;;;7.30;3.10;;;;;;;;;;5091321;28;20227;-78
2023/09/19 10:47:58;;;;;;;6.13;3.17;;;;;;;;;;5103083;28;20316;-77
2023/09/19 10:50:26;;;;;;;4.10;3.70;;;;;;;;;;5093381;28;20215;-76
2023/09/19 10:52:58;;;;;;;4.70;3.33;;;;;;;;;;5091876;28;20207;-77
2023/09/19 10:55:25;;;;;;;2.83;2.63;;;;;;;;;;5091280;28;20708;-76
2023/09/19 10:57:53;;;;;;;5.30;3.50;;;;;;;;;;5104392;28;20199;-76
2023/09/19 11:00:24;;;;;;;5.90;3.73;;;;;;;;;;5110874;28;20272;-77
2023/09/19 11:03:18;;;;;;;3.70;2.90;;;;;;;;;;5097960;28;20616;-77
2023/09/19 11:06:05;;;;;;;3.60;3.30;;;;;;;;;;5063981;28;20211;-76
2023/09/19 11:08:33;;;;;;;4.38;3.45;;;;;;;;;;5091577;28;20283;-76
2023/09/19 11:11:04;;;;;;;5.07;3.00;;;;;;;;;;5091190;28;20227;-76
2023/09/19 11:13:34;;;;;;;3.00;2.73;;;;;;;;;;5097027;28;20231;-76
2023/09/19 11:16:07;;;;;;;4.60;3.15;;;;;;;;;;5108374;28;20744;-76
2023/09/19 11:18:53;;;;;;;3.93;3.30;;;;;;;;;;5093453;28;20200;-76
2023/09/19 11:21:57;;;;;;;3.93;2.80;;;;;;;;;;5090528;28;20238;-76
2023/09/19 11:24:31;;;;;;;5.10;3.03;;;;;;;;;;5091468;28;20245;-76
2023/09/19 11:27:13;;;;;;;3.00;2.80;;;;;;;;;;5101875;28;20199;-77
2023/09/19 11:29:40;;;;;;;4.07;3.40;;;;;;;;;;5101276;28;20245;-76
2023/09/19 11:32:09;;;;;;;3.50;3.03;;;;;;;;;;5101492;28;20678;-77
2023/09/19 11:34:52;;;;;;;5.82;3.72;;;;;;;;;;5106874;28;20589;-77
2023/09/19 11:38:10;;;;;;;3.10;2.80;;;;;;;;;;5098890;28;20674;-76
2023/09/19 11:40:37;;;;;;;3.22;2.92;;;;;;;;;;5090576;28;20310;-76
2023/09/19 11:43:41;;;;;;;3.72;3.30;;;;;;;;;;5090779;28;20197;-76
2023/09/19 11:46:08;;;;;;;4.82;3.33;;;;;;;;;;5098338;28;20269;-77
2023/09/19 11:48:40;;;;;;;3.58;3.28;;;;;;;;;;5102344;28;20222;-76
2023/09/19 11:51:22;;;;;;;3.08;2.88;;;;;;;;;;5096689;28;20207;-78
2023/09/19 11:53:50;;;;;;;2.88;2.67;;;;;;;;;;5103604;28;20260;-77
2023/09/19 11:56:18;;;;;;;3.13;2.90;;;;;;;;;;5097829;28;20211;-76
2023/09/19 11:58:45;;;;;;;3.45;2.47;;;;;;;;;;5106900;28;20203;-76
2023/09/19 12:01:20;;;;;;;3.08;2.88;;;;;;;;;;5092928;28;20200;-77
2023/09/19 12:03:54;;;;;;;3.05;2.85;;;;;;;;;;5095408;28;20214;-77
2023/09/19 12:06:21;;;;;;;3.08;2.88;;;;;;;;;;5103108;28;20195;-76
2023/09/19 12:08:49;;;;;;;3.20;2.47;;;;;;;;;;5109191;28;20204;-76
2023/09/19 12:11:17;;;;;;;4.57;3.35;;;;;;;;;;5090435;28;20705;-76
2023/09/19 12:13:46;;;;;;;3.13;2.83;;;;;;;;;;5090573;28;20741;-75
2023/09/19 12:16:16;;;;;;;5.05;3.17;;;;;;;;;;5090356;28;20206;-75
2023/09/19 12:18:47;;;;;;;4.10;3.05;;;;;;;;;;5090503;28;20631;-75
2023/09/19 12:21:29;;;;;;;3.38;3.00;;;;;;;;;;5090450;28;20705;-75
2023/09/19 12:24:00;;;;;;;4.60;3.08;;;;;;;;;;5104986;28;20202;-75
2023/09/19 12:26:28;;;;;;;3.28;2.95;;;;;;;;;;5106833;28;20236;-76
2023/09/19 12:28:55;;;;;;;3.28;2.97;;;;;;;;;;5106857;28;20199;-75
2023/09/19 12:31:23;;;;;;;5.13;4.63;;;;;;;;;;5089265;28;20295;-75
2023/09/19 12:33:54;;;;;;;3.35;3.05;;;;;;;;;;5090593;28;20674;-75
2023/09/19 12:36:29;;;;;;;4.57;3.60;;;;;;;;;;5104614;28;20196;-76
2023/09/19 12:38:58;;;;;;;4.05;2.92;;;;;;;;;;5106062;28;20199;-77
2023/09/19 12:41:25;;;;;;;3.38;3.08;;;;;;;;;;5098264;28;20236;-77
2023/09/19 12:43:53;;;;;;;3.45;3.15;;;;;;;;;;5095257;28;20210;-76
2023/09/19 12:46:24;;;;;;;3.42;3.13;;;;;;;;;;5110506;28;20211;-76
2023/09/19 12:49:17;;;;;;;3.92;3.05;;;;;;;;;;5096275;28;20249;-78
2023/09/19 12:51:46;;;;;;;5.00;2.88;;;;;;;;;;5100533;28;20196;-76
2023/09/19 12:54:15;;;;;;;3.22;2.95;;;;;;;;;;5112992;28;20208;-76
2023/09/19 12:56:47;;;;;;;3.88;2.88;;;;;;;;;;5097376;28;20259;-77
2023/09/19 12:59:14;;;;;;;3.70;3.13;;;;;;;;;;5106774;28;20232;-77
2023/09/19 13:01:46;;;;;;;3.63;3.13;;;;;;;;;;5093844;28;20654;-76
2023/09/19 13:04:19;;;;;;;4.75;3.60;;;;;;;;;;5097674;28;20708;-76
2023/09/19 13:06:48;;;;;;;3.50;3.13;;;;;;;;;;5113574;28;20238;-76
2023/09/19 13:09:17;;;;;;;6.25;3.60;;;;;;;;;;5108642;28;20261;-76
2023/09/19 13:11:47;;;;;;;4.10;2.97;;;;;;;;;;5093479;28;20239;-76
2023/09/19 13:14:19;;;;;;;3.63;3.33;;;;;;;;;;5113380;28;20227;-76
2023/09/19 13:16:57;;;;;;;3.83;3.43;;;;;;;;;;5099145;28;20737;-76
2023/09/19 13:19:45;;;;;;;3.50;3.20;;;;;;;;;;5093507;28;20356;-75
2023/09/19 13:22:38;;;;;;;3.47;2.97;;;;;;;;;;5106327;28;20197;-75
2023/09/19 13:25:07;;;;;;;3.33;3.03;;;;;;;;;;5092984;28;20200;-75
2023/09/19 13:27:36;;;;;;;3.80;2.95;;;;;;;;;;5097059;28;20255;-76
2023/09/19 13:30:04;;;;;;;5.88;2.80;;;;;;;;;;5102500;28;20211;-76
2023/09/19 13:32:33;;;;;;;4.50;3.40;;;;;;;;;;5092655;28;20204;-77
2023/09/19 13:35:00;;;;;;;3.72;3.38;;;;;;;;;;5093464;28;20637;-76
2023/09/19 13:37:27;;;;;;;12.30;3.40;;;;;;;;;;5103955;28;20215;-75
2023/09/19 13:39:54;;;;;;;4.78;3.30;;;;;;;;;;5092438;28;20314;-75
2023/09/19 13:42:22;;;;;;;5.93;3.00;;;;;;;;;;5101389;28;20200;-75
2023/09/19 13:44:49;;;;;;;2.93;2.73;;;;;;;;;;5100145;28;20200;-75
2023/09/19 13:47:16;;;;;;;3.13;2.87;;;;;;;;;;5111743;28;20203;-75
2023/09/19 13:49:50;;;;;;;4.50;2.93;;;;;;;;;;5109838;28;20713;-75
2023/09/19 13:52:17;;;;;;;3.07;2.70;;;;;;;;;;5095197;28;20206;-76
2023/09/19 13:54:46;;;;;;;3.97;2.63;;;;;;;;;;5104846;28;20200;-76
2023/09/19 13:57:13;;;;;;;3.42;3.13;;;;;;;;;;5092213;28;20200;-75
2023/09/19 13:59:41;;;;;;;3.53;3.23;;;;;;;;;;5092683;28;20216;-75
2023/09/19 14:02:08;;;;;;;4.03;3.10;;;;;;;;;;5091014;28;20696;-76
2023/09/19 14:04:35;;;;;;;3.85;3.45;;;;;;;;;;5102339;28;20264;-76
2023/09/19 14:07:03;;;;;;;5.45;3.10;;;;;;;;;;5095786;28;20331;-76
2023/09/19 14:09:30;;;;;;;4.63;3.13;;;;;;;;;;5092663;28;20207;-76
2023/09/19 14:11:57;;;;;;;13.27;6.50;;;;;;;;;;5092146;28;20228;-75
2023/09/19 14:14:23;;;;;;;6.00;3.17;;;;;;;;;;5092605;28;20204;-75
2023/09/19 14:16:52;;;;;;;3.77;3.47;;;;;;;;;;5095142;28;20203;-75
2023/09/19 14:19:19;;;;;;;3.13;2.80;;;;;;;;;;5103736;28;20200;-75
2023/09/19 14:21:45;;;;;;;3.25;2.75;;;;;;;;;;5091272;28;20200;-75
2023/09/19 14:24:12;;;;;;;4.38;3.03;;;;;;;;;;5106987;28;20206;-76
2023/09/19 14:26:39;;;;;;;3.58;3.28;;;;;;;;;;5110595;28;20203;-75
2023/09/19 14:29:07;;;;;;;3.78;3.25;;;;;;;;;;5094345;28;20789;-76
2023/09/19 14:31:37;;;;;;;4.03;3.13;;;;;;;;;;5100860;28;20239;-76
2023/09/19 14:34:06;;;;;;;2.92;2.63;;;;;;;;;;5098074;28;20200;-75
2023/09/19 14:36:33;;;;;;;6.03;4.27;;;;;;;;;;5100921;28;20212;-75
2023/09/19 14:39:00;;;;;;;3.83;2.92;;;;;;;;;;5092101;28;20249;-75
2023/09/19 14:41:26;;;;;;;4.33;3.47;;;;;;;;;;5102401;28;20226;-75
2023/09/19 14:43:55;;;;;;;3.53;3.23;;;;;;;;;;5098692;28;20196;-75
2023/09/19 14:46:24;;;;;;;3.87;3.33;;;;;;;;;;5100126;28;20228;-75
2023/09/19 14:48:52;;;;;;;5.77;3.87;;;;;;;;;;5106124;28;20650;-75
2023/09/19 14:51:20;;;;;;;5.00;2.93;;;;;;;;;;5111120;28;20196;-75
2023/09/19 14:53:47;;;;;;;5.27;4.50;;;;;;;;;;5112004;28;20207;-75
2023/09/19 14:56:18;;;;;;;3.60;3.30;;;;;;;;;;5100065;28;20678;-75
2023/09/19 14:58:45;;;;;;;5.23;3.30;;;;;;;;;;5105517;28;20196;-75